sensor_id;sensor_type;location;lat;lon;timestamp;temperature;humidity
56046;DHT22;41913;51.030;3.706;2022-12-18T00:01:37;18.50;79.20
56046;DHT22;41913;51.030;3.706;2022-12-18T00:04:03;18.50;79.20
56046;DHT22;41913;51.030;3.706;2022-12-18T00:06:29;18.40;79.20
56046;DHT22;41913;51.030;3.706;2022-12-18T00:08:56;18.40;79.20
56046;DHT22;41913;51.030;3.706;2022-12-18T00:11:23;18.40;79.20
56046;DHT22;41913;51.030;3.706;2022-12-18T00:13:49;18.40;79.10
56046;DHT22;41913;51.030;3.706;2022-12-18T00:16:16;18.40;79.10
56046;DHT22;41913;51.030;3.706;2022-12-18T00:18:42;18.40;79.10
56046;DHT22;41913;51.030;3.706;2022-12-18T00:21:08;18.30;79.00
56046;DHT22;41913;51.030;3.706;2022-12-18T00:23:34;18.30;79.00
56046;DHT22;41913;51.030;3.706;2022-12-18T00:26:00;18.30;79.00
56046;DHT22;41913;51.030;3.706;2022-12-18T00:28:26;18.30;79.00
56046;DHT22;41913;51.030;3.706;2022-12-18T00:31:02;18.30;79.00
56046;DHT22;41913;51.030;3.706;2022-12-18T00:33:28;18.20;78.90
56046;DHT22;41913;51.030;3.706;2022-12-18T00:35:53;18.20;78.80
56046;DHT22;41913;51.030;3.706;2022-12-18T00:38:19;18.20;78.80
56046;DHT22;41913;51.030;3.706;2022-12-18T00:40:44;18.20;78.80
56046;DHT22;41913;51.030;3.706;2022-12-18T00:43:10;18.20;78.80
56046;DHT22;41913;51.030;3.706;2022-12-18T00:45:35;18.20;78.80
56046;DHT22;41913;51.030;3.706;2022-12-18T00:48:01;18.10;78.80
56046;DHT22;41913;51.030;3.706;2022-12-18T00:50:26;18.10;78.80
56046;DHT22;41913;51.030;3.706;2022-12-18T00:52:54;18.10;78.80
56046;DHT22;41913;51.030;3.706;2022-12-18T00:55:19;18.10;78.70
56046;DHT22;41913;51.030;3.706;2022-12-18T00:57:45;18.10;78.60
56046;DHT22;41913;51.030;3.706;2022-12-18T01:00:11;18.10;78.60
56046;DHT22;41913;51.030;3.706;2022-12-18T01:02:38;18.10;78.50
56046;DHT22;41913;51.030;3.706;2022-12-18T01:05:04;18.10;78.60
56046;DHT22;41913;51.030;3.706;2022-12-18T01:07:30;18.10;78.60
56046;DHT22;41913;51.030;3.706;2022-12-18T01:09:55;18.10;78.60
56046;DHT22;41913;51.030;3.706;2022-12-18T01:12:21;18.10;78.60
56046;DHT22;41913;51.030;3.706;2022-12-18T01:14:46;18.00;78.50
56046;DHT22;41913;51.030;3.706;2022-12-18T01:17:12;18.00;78.40
56046;DHT22;41913;51.030;3.706;2022-12-18T01:19:37;18.00;78.30
56046;DHT22;41913;51.030;3.706;2022-12-18T01:22:03;18.00;78.30
56046;DHT22;41913;51.030;3.706;2022-12-18T01:24:28;18.00;78.30
56046;DHT22;41913;51.030;3.706;2022-12-18T01:26:54;18.00;78.30
56046;DHT22;41913;51.030;3.706;2022-12-18T01:29:20;18.00;78.30
56046;DHT22;41913;51.030;3.706;2022-12-18T01:31:45;17.90;78.30
56046;DHT22;41913;51.030;3.706;2022-12-18T01:34:11;17.90;78.80
56046;DHT22;41913;51.030;3.706;2022-12-18T01:36:37;17.90;78.20
56046;DHT22;41913;51.030;3.706;2022-12-18T01:39:06;17.90;78.20
56046;DHT22;41913;51.030;3.706;2022-12-18T01:41:34;17.90;78.10
56046;DHT22;41913;51.030;3.706;2022-12-18T01:47:02;17.90;78.00
56046;DHT22;41913;51.030;3.706;2022-12-18T01:49:28;17.90;78.10
56046;DHT22;41913;51.030;3.706;2022-12-18T01:51:53;17.80;78.00
56046;DHT22;41913;51.030;3.706;2022-12-18T01:54:19;17.80;78.00
56046;DHT22;41913;51.030;3.706;2022-12-18T01:56:44;17.80;78.00
56046;DHT22;41913;51.030;3.706;2022-12-18T01:59:10;17.80;77.90
56046;DHT22;41913;51.030;3.706;2022-12-18T02:01:36;17.80;77.90
56046;DHT22;41913;51.030;3.706;2022-12-18T02:06:44;17.80;77.80
56046;DHT22;41913;51.030;3.706;2022-12-18T02:11:39;17.80;77.80
56046;DHT22;41913;51.030;3.706;2022-12-18T02:14:17;17.80;78.40
56046;DHT22;41913;51.030;3.706;2022-12-18T02:19:27;17.70;77.70
56046;DHT22;41913;51.030;3.706;2022-12-18T02:26:50;17.80;77.70
56046;DHT22;41913;51.030;3.706;2022-12-18T02:29:22;17.70;77.60
56046;DHT22;41913;51.030;3.706;2022-12-18T02:31:52;17.70;77.60
56046;DHT22;41913;51.030;3.706;2022-12-18T02:34:19;17.70;77.60
56046;DHT22;41913;51.030;3.706;2022-12-18T02:36:46;17.70;77.60
56046;DHT22;41913;51.030;3.706;2022-12-18T02:39:13;17.70;77.60
56046;DHT22;41913;51.030;3.706;2022-12-18T02:41:38;17.60;77.40
56046;DHT22;41913;51.030;3.706;2022-12-18T02:44:09;17.60;77.40
56046;DHT22;41913;51.030;3.706;2022-12-18T02:46:36;17.60;77.40
56046;DHT22;41913;51.030;3.706;2022-12-18T02:49:08;17.60;77.40
56046;DHT22;41913;51.030;3.706;2022-12-18T02:51:40;17.60;77.40
56046;DHT22;41913;51.030;3.706;2022-12-18T02:54:10;17.60;77.40
56046;DHT22;41913;51.030;3.706;2022-12-18T02:56:43;17.60;77.40
56046;DHT22;41913;51.030;3.706;2022-12-18T02:59:13;17.60;77.40
56046;DHT22;41913;51.030;3.706;2022-12-18T03:01:46;17.60;77.30
56046;DHT22;41913;51.030;3.706;2022-12-18T03:06:51;17.60;77.30
56046;DHT22;41913;51.030;3.706;2022-12-18T03:09:22;17.60;77.20
56046;DHT22;41913;51.030;3.706;2022-12-18T03:11:52;17.50;77.10
56046;DHT22;41913;51.030;3.706;2022-12-18T03:14:38;17.50;77.10
56046;DHT22;41913;51.030;3.706;2022-12-18T03:17:05;17.50;77.20
56046;DHT22;41913;51.030;3.706;2022-12-18T03:19:33;17.50;77.10
56046;DHT22;41913;51.030;3.706;2022-12-18T03:22:00;17.50;77.10
56046;DHT22;41913;51.030;3.706;2022-12-18T03:24:27;17.50;77.10
56046;DHT22;41913;51.030;3.706;2022-12-18T03:26:54;17.50;77.00
56046;DHT22;41913;51.030;3.706;2022-12-18T03:29:25;17.50;77.00
56046;DHT22;41913;51.030;3.706;2022-12-18T03:31:53;17.50;77.00
56046;DHT22;41913;51.030;3.706;2022-12-18T03:34:23;17.50;77.00
56046;DHT22;41913;51.030;3.706;2022-12-18T03:36:50;17.40;77.00
56046;DHT22;41913;51.030;3.706;2022-12-18T03:39:16;17.50;77.00
56046;DHT22;41913;51.030;3.706;2022-12-18T03:44:21;17.40;76.80
56046;DHT22;41913;51.030;3.706;2022-12-18T03:46:58;17.40;76.80
56046;DHT22;41913;51.030;3.706;2022-12-18T03:49:42;17.40;76.80
56046;DHT22;41913;51.030;3.706;2022-12-18T03:52:21;17.40;76.80
56046;DHT22;41913;51.030;3.706;2022-12-18T03:54:47;17.40;76.80
56046;DHT22;41913;51.030;3.706;2022-12-18T03:57:14;17.40;76.80
56046;DHT22;41913;51.030;3.706;2022-12-18T03:59:41;17.40;76.80
56046;DHT22;41913;51.030;3.706;2022-12-18T04:02:08;17.40;76.70
56046;DHT22;41913;51.030;3.706;2022-12-18T04:04:35;17.40;76.70
56046;DHT22;41913;51.030;3.706;2022-12-18T04:07:02;17.40;76.60
56046;DHT22;41913;51.030;3.706;2022-12-18T04:09:28;17.40;76.60
56046;DHT22;41913;51.030;3.706;2022-12-18T04:11:55;17.30;76.50
56046;DHT22;41913;51.030;3.706;2022-12-18T04:14:21;17.30;76.50
56046;DHT22;41913;51.030;3.706;2022-12-18T04:16:46;17.30;76.50
56046;DHT22;41913;51.030;3.706;2022-12-18T04:19:12;17.30;76.60
56046;DHT22;41913;51.030;3.706;2022-12-18T04:21:37;17.30;76.60
56046;DHT22;41913;51.030;3.706;2022-12-18T04:24:03;17.30;76.50
56046;DHT22;41913;51.030;3.706;2022-12-18T04:26:30;17.30;76.40
56046;DHT22;41913;51.030;3.706;2022-12-18T04:28:55;17.30;76.40
56046;DHT22;41913;51.030;3.706;2022-12-18T04:31:21;17.30;76.30
56046;DHT22;41913;51.030;3.706;2022-12-18T04:33:46;17.30;76.30
56046;DHT22;41913;51.030;3.706;2022-12-18T04:36:12;17.30;76.30
56046;DHT22;41913;51.030;3.706;2022-12-18T04:38:37;17.20;76.30
56046;DHT22;41913;51.030;3.706;2022-12-18T04:41:04;17.20;76.30
56046;DHT22;41913;51.030;3.706;2022-12-18T04:43:30;17.20;76.30
56046;DHT22;41913;51.030;3.706;2022-12-18T04:46:06;17.20;76.30
56046;DHT22;41913;51.030;3.706;2022-12-18T04:48:33;17.20;76.20
56046;DHT22;41913;51.030;3.706;2022-12-18T04:50:58;17.20;76.20
56046;DHT22;41913;51.030;3.706;2022-12-18T04:53:24;17.20;76.70
56046;DHT22;41913;51.030;3.706;2022-12-18T04:55:50;17.20;76.10
56046;DHT22;41913;51.030;3.706;2022-12-18T04:58:15;17.20;76.20
56046;DHT22;41913;51.030;3.706;2022-12-18T05:00:41;17.20;76.20
56046;DHT22;41913;51.030;3.706;2022-12-18T05:03:06;17.20;76.20
56046;DHT22;41913;51.030;3.706;2022-12-18T05:05:34;17.20;76.20
56046;DHT22;41913;51.030;3.706;2022-12-18T05:08:01;17.20;76.10
56046;DHT22;41913;51.030;3.706;2022-12-18T05:10:26;17.20;76.00
56046;DHT22;41913;51.030;3.706;2022-12-18T05:12:54;17.20;76.00
56046;DHT22;41913;51.030;3.706;2022-12-18T05:15:30;17.20;76.00
56046;DHT22;41913;51.030;3.706;2022-12-18T05:17:57;17.20;76.00
56046;DHT22;41913;51.030;3.706;2022-12-18T05:20:23;17.10;76.00
56046;DHT22;41913;51.030;3.706;2022-12-18T05:22:49;17.10;76.00
56046;DHT22;41913;51.030;3.706;2022-12-18T05:25:15;17.10;76.00
56046;DHT22;41913;51.030;3.706;2022-12-18T05:27:40;17.10;75.90
56046;DHT22;41913;51.030;3.706;2022-12-18T05:30:06;17.10;75.90
56046;DHT22;41913;51.030;3.706;2022-12-18T05:32:33;17.10;75.80
56046;DHT22;41913;51.030;3.706;2022-12-18T05:34:59;17.10;75.80
56046;DHT22;41913;51.030;3.706;2022-12-18T05:37:25;17.10;75.80
56046;DHT22;41913;51.030;3.706;2022-12-18T05:39:50;17.10;75.80
56046;DHT22;41913;51.030;3.706;2022-12-18T05:42:16;17.10;75.80
56046;DHT22;41913;51.030;3.706;2022-12-18T05:44:42;17.00;75.80
56046;DHT22;41913;51.030;3.706;2022-12-18T05:47:08;17.00;75.70
56046;DHT22;41913;51.030;3.706;2022-12-18T05:49:34;17.00;75.70
56046;DHT22;41913;51.030;3.706;2022-12-18T05:51:59;17.00;75.70
56046;DHT22;41913;51.030;3.706;2022-12-18T05:54:26;17.00;75.70
56046;DHT22;41913;51.030;3.706;2022-12-18T05:56:52;17.00;75.70
56046;DHT22;41913;51.030;3.706;2022-12-18T05:59:19;17.00;75.70
56046;DHT22;41913;51.030;3.706;2022-12-18T06:01:44;16.90;75.60
56046;DHT22;41913;51.030;3.706;2022-12-18T06:04:10;16.90;75.60
56046;DHT22;41913;51.030;3.706;2022-12-18T06:06:36;16.90;75.60
56046;DHT22;41913;51.030;3.706;2022-12-18T06:09:03;16.90;75.60
56046;DHT22;41913;51.030;3.706;2022-12-18T06:11:34;17.00;75.60
56046;DHT22;41913;51.030;3.706;2022-12-18T06:14:00;16.90;75.50
56046;DHT22;41913;51.030;3.706;2022-12-18T06:16:26;16.90;75.40
56046;DHT22;41913;51.030;3.706;2022-12-18T06:18:53;16.90;75.40
56046;DHT22;41913;51.030;3.706;2022-12-18T06:21:18;16.90;75.40
56046;DHT22;41913;51.030;3.706;2022-12-18T06:23:45;16.90;75.40
56046;DHT22;41913;51.030;3.706;2022-12-18T06:26:11;16.90;75.40
56046;DHT22;41913;51.030;3.706;2022-12-18T06:28:37;16.90;75.40
56046;DHT22;41913;51.030;3.706;2022-12-18T06:31:03;16.90;75.30
56046;DHT22;41913;51.030;3.706;2022-12-18T06:33:29;16.90;75.30
56046;DHT22;41913;51.030;3.706;2022-12-18T06:35:59;16.90;75.30
56046;DHT22;41913;51.030;3.706;2022-12-18T06:38:25;16.90;75.30
56046;DHT22;41913;51.030;3.706;2022-12-18T06:40:51;16.90;75.30
56046;DHT22;41913;51.030;3.706;2022-12-18T06:43:16;16.80;75.20
56046;DHT22;41913;51.030;3.706;2022-12-18T06:45:42;16.80;75.20
56046;DHT22;41913;51.030;3.706;2022-12-18T06:48:07;16.80;75.20
56046;DHT22;41913;51.030;3.706;2022-12-18T06:50:33;16.80;75.20
56046;DHT22;41913;51.030;3.706;2022-12-18T06:52:59;16.90;75.20
56046;DHT22;41913;51.030;3.706;2022-12-18T06:55:24;16.90;75.10
56046;DHT22;41913;51.030;3.706;2022-12-18T06:57:50;16.90;75.10
56046;DHT22;41913;51.030;3.706;2022-12-18T07:00:16;16.90;75.00
56046;DHT22;41913;51.030;3.706;2022-12-18T07:02:41;17.00;75.00
56046;DHT22;41913;51.030;3.706;2022-12-18T07:05:07;17.00;74.90
56046;DHT22;41913;51.030;3.706;2022-12-18T07:07:33;17.10;74.80
56046;DHT22;41913;51.030;3.706;2022-12-18T07:09:59;17.10;74.80
56046;DHT22;41913;51.030;3.706;2022-12-18T07:12:26;17.10;74.80
56046;DHT22;41913;51.030;3.706;2022-12-18T07:14:51;17.10;74.70
56046;DHT22;41913;51.030;3.706;2022-12-18T07:17:17;17.20;74.80
56046;DHT22;41913;51.030;3.706;2022-12-18T07:19:42;17.20;74.60
56046;DHT22;41913;51.030;3.706;2022-12-18T07:22:08;17.30;74.50
56046;DHT22;41913;51.030;3.706;2022-12-18T07:24:33;17.40;74.30
56046;DHT22;41913;51.030;3.706;2022-12-18T07:26:59;17.40;74.00
56046;DHT22;41913;51.030;3.706;2022-12-18T07:29:26;17.50;73.70
56046;DHT22;41913;51.030;3.706;2022-12-18T07:31:51;17.50;73.40
56046;DHT22;41913;51.030;3.706;2022-12-18T07:34:18;17.50;73.40
56046;DHT22;41913;51.030;3.706;2022-12-18T07:36:44;17.60;73.30
56046;DHT22;41913;51.030;3.706;2022-12-18T07:39:10;17.70;73.20
56046;DHT22;41913;51.030;3.706;2022-12-18T07:41:36;17.80;73.00
56046;DHT22;41913;51.030;3.706;2022-12-18T07:44:03;17.80;72.80
56046;DHT22;41913;51.030;3.706;2022-12-18T07:46:29;17.90;72.50
56046;DHT22;41913;51.030;3.706;2022-12-18T07:48:54;18.00;72.30
56046;DHT22;41913;51.030;3.706;2022-12-18T07:51:20;18.00;72.10
56046;DHT22;41913;51.030;3.706;2022-12-18T07:53:46;18.20;71.90
56046;DHT22;41913;51.030;3.706;2022-12-18T07:56:12;18.30;72.00
56046;DHT22;41913;51.030;3.706;2022-12-18T07:58:38;18.40;72.20
56046;DHT22;41913;51.030;3.706;2022-12-18T08:03:29;18.70;73.20
56046;DHT22;41913;51.030;3.706;2022-12-18T08:06:05;18.80;73.50
56046;DHT22;41913;51.030;3.706;2022-12-18T08:08:32;19.00;73.50
56046;DHT22;41913;51.030;3.706;2022-12-18T08:10:58;19.20;73.40
56046;DHT22;41913;51.030;3.706;2022-12-18T08:13:24;19.30;73.30
56046;DHT22;41913;51.030;3.706;2022-12-18T08:15:57;19.50;73.20
56046;DHT22;41913;51.030;3.706;2022-12-18T08:18:23;19.70;73.10
56046;DHT22;41913;51.030;3.706;2022-12-18T08:20:48;19.80;72.90
56046;DHT22;41913;51.030;3.706;2022-12-18T08:23:14;20.00;72.80
56046;DHT22;41913;51.030;3.706;2022-12-18T08:25:40;20.10;72.20
56046;DHT22;41913;51.030;3.706;2022-12-18T08:28:05;20.10;71.40
56046;DHT22;41913;51.030;3.706;2022-12-18T08:30:31;20.20;70.70
56046;DHT22;41913;51.030;3.706;2022-12-18T08:32:56;20.20;70.00
56046;DHT22;41913;51.030;3.706;2022-12-18T08:35:22;20.10;69.70
56046;DHT22;41913;51.030;3.706;2022-12-18T08:37:47;20.10;69.40
56046;DHT22;41913;51.030;3.706;2022-12-18T08:40:13;20.10;69.30
56046;DHT22;41913;51.030;3.706;2022-12-18T08:42:39;20.00;69.10
56046;DHT22;41913;51.030;3.706;2022-12-18T08:45:23;20.00;69.00
56046;DHT22;41913;51.030;3.706;2022-12-18T08:47:50;20.00;69.00
56046;DHT22;41913;51.030;3.706;2022-12-18T08:50:15;20.00;69.60
56046;DHT22;41913;51.030;3.706;2022-12-18T08:52:41;20.10;70.60
56046;DHT22;41913;51.030;3.706;2022-12-18T08:55:07;20.30;73.50
56046;DHT22;41913;51.030;3.706;2022-12-18T08:57:32;20.40;78.10
56046;DHT22;41913;51.030;3.706;2022-12-18T08:59:58;20.60;84.10
56046;DHT22;41913;51.030;3.706;2022-12-18T09:02:24;20.70;87.20
56046;DHT22;41913;51.030;3.706;2022-12-18T09:04:55;20.80;89.30
56046;DHT22;41913;51.030;3.706;2022-12-18T09:07:20;20.90;89.10
56046;DHT22;41913;51.030;3.706;2022-12-18T09:09:46;20.90;83.10
56046;DHT22;41913;51.030;3.706;2022-12-18T09:12:11;20.80;78.50
56046;DHT22;41913;51.030;3.706;2022-12-18T09:14:37;20.70;76.50
56046;DHT22;41913;51.030;3.706;2022-12-18T09:17:02;20.70;75.30
56046;DHT22;41913;51.030;3.706;2022-12-18T09:19:28;20.60;74.30
56046;DHT22;41913;51.030;3.706;2022-12-18T09:21:53;20.50;73.50
56046;DHT22;41913;51.030;3.706;2022-12-18T09:24:19;20.40;72.90
56046;DHT22;41913;51.030;3.706;2022-12-18T09:26:45;20.40;73.50
56046;DHT22;41913;51.030;3.706;2022-12-18T09:29:10;20.30;74.50
56046;DHT22;41913;51.030;3.706;2022-12-18T09:31:38;20.30;74.20
56046;DHT22;41913;51.030;3.706;2022-12-18T09:34:04;20.30;73.90
56046;DHT22;41913;51.030;3.706;2022-12-18T09:36:30;20.30;73.40
56046;DHT22;41913;51.030;3.706;2022-12-18T09:38:56;20.20;73.10
56046;DHT22;41913;51.030;3.706;2022-12-18T09:44:09;20.00;73.80
56046;DHT22;41913;51.030;3.706;2022-12-18T09:46:37;20.00;75.10
56046;DHT22;41913;51.030;3.706;2022-12-18T09:49:05;19.90;76.00
56046;DHT22;41913;51.030;3.706;2022-12-18T09:51:46;19.80;77.00
56046;DHT22;41913;51.030;3.706;2022-12-18T09:54:14;19.70;77.60
56046;DHT22;41913;51.030;3.706;2022-12-18T09:56:42;19.60;77.80
56046;DHT22;41913;51.030;3.706;2022-12-18T09:59:30;19.50;77.90
56046;DHT22;41913;51.030;3.706;2022-12-18T10:01:55;19.50;77.60
56046;DHT22;41913;51.030;3.706;2022-12-18T10:04:20;19.40;77.50
56046;DHT22;41913;51.030;3.706;2022-12-18T10:06:52;19.30;77.50
56046;DHT22;41913;51.030;3.706;2022-12-18T10:09:24;19.20;77.50
56046;DHT22;41913;51.030;3.706;2022-12-18T10:14:41;19.00;77.20
56046;DHT22;41913;51.030;3.706;2022-12-18T10:19:45;18.90;77.20
56046;DHT22;41913;51.030;3.706;2022-12-18T10:25:09;18.80;77.00
56046;DHT22;41913;51.030;3.706;2022-12-18T10:27:40;18.70;76.90
56046;DHT22;41913;51.030;3.706;2022-12-18T10:30:13;18.70;76.90
56046;DHT22;41913;51.030;3.706;2022-12-18T10:32:40;18.60;76.80
56046;DHT22;41913;51.030;3.706;2022-12-18T10:35:07;18.50;76.70
56046;DHT22;41913;51.030;3.706;2022-12-18T10:37:35;18.50;76.60
56046;DHT22;41913;51.030;3.706;2022-12-18T10:42:35;18.40;76.40
56046;DHT22;41913;51.030;3.706;2022-12-18T10:45:10;18.30;76.30
56046;DHT22;41913;51.030;3.706;2022-12-18T10:47:36;18.20;76.10
56046;DHT22;41913;51.030;3.706;2022-12-18T10:50:02;18.20;76.00
56046;DHT22;41913;51.030;3.706;2022-12-18T10:52:28;18.20;76.00
56046;DHT22;41913;51.030;3.706;2022-12-18T10:54:58;18.10;75.80
56046;DHT22;41913;51.030;3.706;2022-12-18T10:57:39;18.10;75.80
56046;DHT22;41913;51.030;3.706;2022-12-18T11:02:50;18.00;75.60
56046;DHT22;41913;51.030;3.706;2022-12-18T11:07:51;17.90;75.40
56046;DHT22;41913;51.030;3.706;2022-12-18T11:10:20;17.80;75.30
56046;DHT22;41913;51.030;3.706;2022-12-18T11:12:47;17.80;75.30
56046;DHT22;41913;51.030;3.706;2022-12-18T11:15:20;17.80;75.30
56046;DHT22;41913;51.030;3.706;2022-12-18T11:17:46;17.70;75.20
56046;DHT22;41913;51.030;3.706;2022-12-18T11:20:20;17.70;75.10
56046;DHT22;41913;51.030;3.706;2022-12-18T11:25:41;17.60;75.10
56046;DHT22;41913;51.030;3.706;2022-12-18T11:33:44;17.50;75.00
56046;DHT22;41913;51.030;3.706;2022-12-18T11:36:12;17.50;75.00
56046;DHT22;41913;51.030;3.706;2022-12-18T11:38:41;17.50;75.00
56046;DHT22;41913;51.030;3.706;2022-12-18T11:43:59;17.40;74.90
56046;DHT22;41913;51.030;3.706;2022-12-18T11:46:37;17.40;74.90
56046;DHT22;41913;51.030;3.706;2022-12-18T11:52:23;17.30;74.90
56046;DHT22;41913;51.030;3.706;2022-12-18T11:54:51;17.30;74.90
56046;DHT22;41913;51.030;3.706;2022-12-18T12:00:04;17.20;74.80
56046;DHT22;41913;51.030;3.706;2022-12-18T12:18:48;17.00;74.80
56046;DHT22;41913;51.030;3.706;2022-12-18T12:21:28;17.00;74.80
56046;DHT22;41913;51.030;3.706;2022-12-18T12:29:06;17.00;75.00
56046;DHT22;41913;51.030;3.706;2022-12-18T12:34:26;16.90;74.70
56046;DHT22;41913;51.030;3.706;2022-12-18T12:39:20;16.90;74.70
56046;DHT22;41913;51.030;3.706;2022-12-18T12:41:47;16.90;74.70
56046;DHT22;41913;51.030;3.706;2022-12-18T12:44:35;16.80;74.60
56046;DHT22;41913;51.030;3.706;2022-12-18T12:47:11;16.80;74.60
56046;DHT22;41913;51.030;3.706;2022-12-18T12:49:39;16.80;74.60
56046;DHT22;41913;51.030;3.706;2022-12-18T12:52:07;16.80;74.60
56046;DHT22;41913;51.030;3.706;2022-12-18T12:54:33;16.80;74.60
56046;DHT22;41913;51.030;3.706;2022-12-18T13:01:57;16.70;74.60
56046;DHT22;41913;51.030;3.706;2022-12-18T13:04:33;16.70;74.60
56046;DHT22;41913;51.030;3.706;2022-12-18T13:12:29;16.60;74.60
56046;DHT22;41913;51.030;3.706;2022-12-18T13:15:20;16.60;74.60
56046;DHT22;41913;51.030;3.706;2022-12-18T13:17:46;16.60;74.60
56046;DHT22;41913;51.030;3.706;2022-12-18T13:20:12;16.60;74.60
56046;DHT22;41913;51.030;3.706;2022-12-18T13:22:40;16.60;74.60
56046;DHT22;41913;51.030;3.706;2022-12-18T13:28:01;16.50;74.60
56046;DHT22;41913;51.030;3.706;2022-12-18T13:35:42;16.50;74.70
56046;DHT22;41913;51.030;3.706;2022-12-18T13:41:02;16.50;74.70
56046;DHT22;41913;51.030;3.706;2022-12-18T13:43:29;16.40;74.70
56046;DHT22;41913;51.030;3.706;2022-12-18T13:46:02;16.40;74.70
56046;DHT22;41913;51.030;3.706;2022-12-18T13:48:30;16.40;74.70
56046;DHT22;41913;51.030;3.706;2022-12-18T13:53:29;16.40;74.70
56046;DHT22;41913;51.030;3.706;2022-12-18T13:55:56;16.40;74.70
56046;DHT22;41913;51.030;3.706;2022-12-18T13:58:21;16.40;74.70
56046;DHT22;41913;51.030;3.706;2022-12-18T14:00:48;16.40;74.80
56046;DHT22;41913;51.030;3.706;2022-12-18T14:03:16;16.30;74.70
56046;DHT22;41913;51.030;3.706;2022-12-18T14:05:43;16.30;74.70
56046;DHT22;41913;51.030;3.706;2022-12-18T14:08:15;16.30;74.70
56046;DHT22;41913;51.030;3.706;2022-12-18T14:10:41;16.30;74.70
56046;DHT22;41913;51.030;3.706;2022-12-18T14:13:08;16.30;74.70
56046;DHT22;41913;51.030;3.706;2022-12-18T14:15:41;16.30;74.80
56046;DHT22;41913;51.030;3.706;2022-12-18T14:20:40;16.30;74.70
56046;DHT22;41913;51.030;3.706;2022-12-18T14:23:24;16.30;74.80
56046;DHT22;41913;51.030;3.706;2022-12-18T14:25:50;16.20;74.70
56046;DHT22;41913;51.030;3.706;2022-12-18T14:28:16;16.20;74.70
56046;DHT22;41913;51.030;3.706;2022-12-18T14:30:44;16.20;74.70
56046;DHT22;41913;51.030;3.706;2022-12-18T14:33:11;16.20;74.70
56046;DHT22;41913;51.030;3.706;2022-12-18T14:35:38;16.20;74.70
56046;DHT22;41913;51.030;3.706;2022-12-18T14:38:21;16.20;74.70
56046;DHT22;41913;51.030;3.706;2022-12-18T14:40:47;16.20;74.70
56046;DHT22;41913;51.030;3.706;2022-12-18T14:43:20;16.10;74.70
56046;DHT22;41913;51.030;3.706;2022-12-18T14:45:45;16.20;74.80
56046;DHT22;41913;51.030;3.706;2022-12-18T14:48:14;16.10;74.70
56046;DHT22;41913;51.030;3.706;2022-12-18T14:50:40;16.10;74.70
56046;DHT22;41913;51.030;3.706;2022-12-18T14:53:16;16.10;74.70
56046;DHT22;41913;51.030;3.706;2022-12-18T14:55:45;16.10;74.80
56046;DHT22;41913;51.030;3.706;2022-12-18T14:58:11;16.10;74.70
56046;DHT22;41913;51.030;3.706;2022-12-18T15:00:40;16.10;74.70
56046;DHT22;41913;51.030;3.706;2022-12-18T15:03:06;16.10;74.70
56046;DHT22;41913;51.030;3.706;2022-12-18T15:05:33;16.10;74.80
56046;DHT22;41913;51.030;3.706;2022-12-18T15:08:00;16.10;74.80
56046;DHT22;41913;51.030;3.706;2022-12-18T15:10:27;16.00;74.70
56046;DHT22;41913;51.030;3.706;2022-12-18T15:18:00;16.00;74.80
56046;DHT22;41913;51.030;3.706;2022-12-18T15:20:26;16.00;74.70
56046;DHT22;41913;51.030;3.706;2022-12-18T15:22:52;16.00;74.70
56046;DHT22;41913;51.030;3.706;2022-12-18T15:25:24;16.00;74.80
56046;DHT22;41913;51.030;3.706;2022-12-18T15:27:51;16.00;74.80
56046;DHT22;41913;51.030;3.706;2022-12-18T15:30:21;15.90;74.70
56046;DHT22;41913;51.030;3.706;2022-12-18T15:32:47;15.90;74.70
56046;DHT22;41913;51.030;3.706;2022-12-18T15:35:21;15.90;74.70
56046;DHT22;41913;51.030;3.706;2022-12-18T15:37:48;15.90;74.70
56046;DHT22;41913;51.030;3.706;2022-12-18T15:40:14;15.90;75.30
56046;DHT22;41913;51.030;3.706;2022-12-18T15:42:40;15.90;74.70
56046;DHT22;41913;51.030;3.706;2022-12-18T15:45:24;15.90;74.70
56046;DHT22;41913;51.030;3.706;2022-12-18T15:47:50;15.90;74.80
56046;DHT22;41913;51.030;3.706;2022-12-18T15:50:15;15.90;74.80
56046;DHT22;41913;51.030;3.706;2022-12-18T15:52:45;15.90;74.80
56046;DHT22;41913;51.030;3.706;2022-12-18T15:55:15;15.90;74.70
56046;DHT22;41913;51.030;3.706;2022-12-18T15:57:59;15.90;74.80
56046;DHT22;41913;51.030;3.706;2022-12-18T16:00:25;15.80;74.70
56046;DHT22;41913;51.030;3.706;2022-12-18T16:02:51;15.80;74.70
56046;DHT22;41913;51.030;3.706;2022-12-18T16:05:17;15.80;74.70
56046;DHT22;41913;51.030;3.706;2022-12-18T16:07:43;15.80;74.70
56046;DHT22;41913;51.030;3.706;2022-12-18T16:10:09;15.80;74.70
56046;DHT22;41913;51.030;3.706;2022-12-18T16:12:36;15.80;74.70
56046;DHT22;41913;51.030;3.706;2022-12-18T16:15:02;15.80;74.70
56046;DHT22;41913;51.030;3.706;2022-12-18T16:17:28;15.80;74.70
56046;DHT22;41913;51.030;3.706;2022-12-18T16:19:53;15.80;74.70
56046;DHT22;41913;51.030;3.706;2022-12-18T16:24:45;15.80;74.70
56046;DHT22;41913;51.030;3.706;2022-12-18T16:27:11;15.80;74.80
56046;DHT22;41913;51.030;3.706;2022-12-18T16:29:36;15.80;74.80
56046;DHT22;41913;51.030;3.706;2022-12-18T16:32:02;15.70;74.70
56046;DHT22;41913;51.030;3.706;2022-12-18T16:34:28;15.70;74.70
56046;DHT22;41913;51.030;3.706;2022-12-18T16:36:57;15.70;74.70
56046;DHT22;41913;51.030;3.706;2022-12-18T16:39:24;15.70;74.70
56046;DHT22;41913;51.030;3.706;2022-12-18T16:41:49;15.70;74.80
56046;DHT22;41913;51.030;3.706;2022-12-18T16:44:15;15.70;74.80
56046;DHT22;41913;51.030;3.706;2022-12-18T16:46:41;15.80;74.90
56046;DHT22;41913;51.030;3.706;2022-12-18T16:49:14;15.80;74.90
56046;DHT22;41913;51.030;3.706;2022-12-18T16:51:39;15.80;75.00
56046;DHT22;41913;51.030;3.706;2022-12-18T16:54:05;15.90;75.30
56046;DHT22;41913;51.030;3.706;2022-12-18T16:56:33;16.00;75.10
56046;DHT22;41913;51.030;3.706;2022-12-18T16:58:59;16.00;75.10
56046;DHT22;41913;51.030;3.706;2022-12-18T17:01:27;16.10;75.10
56046;DHT22;41913;51.030;3.706;2022-12-18T17:03:55;16.20;75.20
56046;DHT22;41913;51.030;3.706;2022-12-18T17:06:21;16.30;75.20
56046;DHT22;41913;51.030;3.706;2022-12-18T17:08:47;16.40;75.10
56046;DHT22;41913;51.030;3.706;2022-12-18T17:11:13;16.50;75.00
56046;DHT22;41913;51.030;3.706;2022-12-18T17:13:38;16.70;75.00
56046;DHT22;41913;51.030;3.706;2022-12-18T17:16:04;16.80;74.90
56046;DHT22;41913;51.030;3.706;2022-12-18T17:18:31;16.90;74.70
56046;DHT22;41913;51.030;3.706;2022-12-18T17:21:00;17.10;74.50
56046;DHT22;41913;51.030;3.706;2022-12-18T17:23:26;17.20;74.20
56046;DHT22;41913;51.030;3.706;2022-12-18T17:25:55;17.30;74.00
56046;DHT22;41913;51.030;3.706;2022-12-18T17:28:22;17.50;74.10
56046;DHT22;41913;51.030;3.706;2022-12-18T17:30:47;17.60;74.00
56046;DHT22;41913;51.030;3.706;2022-12-18T17:33:13;17.70;73.90